sensor_id;sensor_type;location;lat;lon;timestamp;temperature;humidity
7666;DHT22;3875;46.562;4.898;2022-07-29T00:00:14;24.30;57.60
7666;DHT22;3875;46.562;4.898;2022-07-29T00:02:40;24.30;57.30
7666;DHT22;3875;46.562;4.898;2022-07-29T00:05:08;24.20;57.30
7666;DHT22;3875;46.562;4.898;2022-07-29T00:07:35;24.20;57.50
7666;DHT22;3875;46.562;4.898;2022-07-29T00:10:00;24.20;57.30
7666;DHT22;3875;46.562;4.898;2022-07-29T00:12:26;24.10;57.40
7666;DHT22;3875;46.562;4.898;2022-07-29T00:14:53;24.10;57.40
7666;DHT22;3875;46.562;4.898;2022-07-29T00:17:19;24.10;57.60
7666;DHT22;3875;46.562;4.898;2022-07-29T00:19:45;24.10;57.60
7666;DHT22;3875;46.562;4.898;2022-07-29T00:22:10;24.10;57.80
7666;DHT22;3875;46.562;4.898;2022-07-29T00:24:36;24.00;57.70
7666;DHT22;3875;46.562;4.898;2022-07-29T00:27:02;24.00;57.90
7666;DHT22;3875;46.562;4.898;2022-07-29T00:29:28;24.00;57.90
7666;DHT22;3875;46.562;4.898;2022-07-29T00:31:54;24.00;58.20
7666;DHT22;3875;46.562;4.898;2022-07-29T00:34:19;23.90;58.20
7666;DHT22;3875;46.562;4.898;2022-07-29T00:37:03;23.80;58.20
7666;DHT22;3875;46.562;4.898;2022-07-29T00:39:29;23.80;58.20
7666;DHT22;3875;46.562;4.898;2022-07-29T00:41:55;23.80;58.30
7666;DHT22;3875;46.562;4.898;2022-07-29T00:44:20;23.80;58.20
7666;DHT22;3875;46.562;4.898;2022-07-29T00:46:46;23.70;58.30
7666;DHT22;3875;46.562;4.898;2022-07-29T00:49:12;23.70;58.20
7666;DHT22;3875;46.562;4.898;2022-07-29T00:51:39;23.70;58.50
7666;DHT22;3875;46.562;4.898;2022-07-29T00:54:05;23.60;58.50
7666;DHT22;3875;46.562;4.898;2022-07-29T00:56:32;23.60;58.50
7666;DHT22;3875;46.562;4.898;2022-07-29T00:58:58;23.60;58.50
7666;DHT22;3875;46.562;4.898;2022-07-29T01:01:25;23.60;58.40
7666;DHT22;3875;46.562;4.898;2022-07-29T01:03:50;23.60;58.40
7666;DHT22;3875;46.562;4.898;2022-07-29T01:06:19;23.70;58.40
7666;DHT22;3875;46.562;4.898;2022-07-29T01:08:46;23.70;58.40
7666;DHT22;3875;46.562;4.898;2022-07-29T01:11:13;23.70;58.50
7666;DHT22;3875;46.562;4.898;2022-07-29T01:13:39;23.70;58.50
7666;DHT22;3875;46.562;4.898;2022-07-29T01:16:25;23.70;58.50
7666;DHT22;3875;46.562;4.898;2022-07-29T01:18:59;23.80;58.60
7666;DHT22;3875;46.562;4.898;2022-07-29T01:29:29;23.60;58.60
7666;DHT22;3875;46.562;4.898;2022-07-29T01:32:03;23.60;58.60
7666;DHT22;3875;46.562;4.898;2022-07-29T01:34:44;23.60;58.50
7666;DHT22;3875;46.562;4.898;2022-07-29T01:37:19;23.50;58.20
7666;DHT22;3875;46.562;4.898;2022-07-29T01:39:48;23.50;58.40
7666;DHT22;3875;46.562;4.898;2022-07-29T01:42:20;23.40;58.40
7666;DHT22;3875;46.562;4.898;2022-07-29T01:45:18;23.30;58.30
7666;DHT22;3875;46.562;4.898;2022-07-29T01:47:56;23.30;58.30
7666;DHT22;3875;46.562;4.898;2022-07-29T01:50:31;23.30;58.40
7666;DHT22;3875;46.562;4.898;2022-07-29T01:53:04;23.30;58.40
7666;DHT22;3875;46.562;4.898;2022-07-29T01:55:34;23.30;58.40
7666;DHT22;3875;46.562;4.898;2022-07-29T01:58:01;23.20;58.30
7666;DHT22;3875;46.562;4.898;2022-07-29T02:00:30;23.20;58.40
7666;DHT22;3875;46.562;4.898;2022-07-29T02:02:59;23.20;58.50
7666;DHT22;3875;46.562;4.898;2022-07-29T02:05:26;23.20;58.40
7666;DHT22;3875;46.562;4.898;2022-07-29T02:07:55;23.20;58.40
7666;DHT22;3875;46.562;4.898;2022-07-29T02:10:24;23.20;58.40
7666;DHT22;3875;46.562;4.898;2022-07-29T02:12:50;23.20;58.30
7666;DHT22;3875;46.562;4.898;2022-07-29T02:15:18;23.20;58.30
7666;DHT22;3875;46.562;4.898;2022-07-29T02:17:51;23.20;58.30
7666;DHT22;3875;46.562;4.898;2022-07-29T02:20:19;23.10;58.40
7666;DHT22;3875;46.562;4.898;2022-07-29T02:22:46;23.00;58.60
7666;DHT22;3875;46.562;4.898;2022-07-29T02:25:15;22.90;58.80
7666;DHT22;3875;46.562;4.898;2022-07-29T02:27:43;22.90;58.70
7666;DHT22;3875;46.562;4.898;2022-07-29T02:30:10;22.90;58.60
7666;DHT22;3875;46.562;4.898;2022-07-29T02:32:39;23.00;58.70
7666;DHT22;3875;46.562;4.898;2022-07-29T02:35:07;22.90;58.80
7666;DHT22;3875;46.562;4.898;2022-07-29T02:37:34;22.90;58.90
7666;DHT22;3875;46.562;4.898;2022-07-29T02:40:01;22.90;58.90
7666;DHT22;3875;46.562;4.898;2022-07-29T02:42:27;22.90;59.00
7666;DHT22;3875;46.562;4.898;2022-07-29T02:44:53;22.90;58.90
7666;DHT22;3875;46.562;4.898;2022-07-29T02:47:35;22.90;59.00
7666;DHT22;3875;46.562;4.898;2022-07-29T02:50:11;22.80;58.90
7666;DHT22;3875;46.562;4.898;2022-07-29T02:52:43;22.80;58.90
7666;DHT22;3875;46.562;4.898;2022-07-29T02:55:26;22.80;58.80
7666;DHT22;3875;46.562;4.898;2022-07-29T02:58:06;22.90;58.80
7666;DHT22;3875;46.562;4.898;2022-07-29T03:00:37;22.90;58.70
7666;DHT22;3875;46.562;4.898;2022-07-29T03:03:08;22.90;58.70
7666;DHT22;3875;46.562;4.898;2022-07-29T03:05:37;22.90;58.80
7666;DHT22;3875;46.562;4.898;2022-07-29T03:08:04;22.80;59.00
7666;DHT22;3875;46.562;4.898;2022-07-29T03:10:31;22.80;59.00
7666;DHT22;3875;46.562;4.898;2022-07-29T03:12:58;22.80;59.00
7666;DHT22;3875;46.562;4.898;2022-07-29T03:15:24;22.80;59.00
7666;DHT22;3875;46.562;4.898;2022-07-29T03:17:51;22.80;58.90
7666;DHT22;3875;46.562;4.898;2022-07-29T03:20:18;22.80;59.00
7666;DHT22;3875;46.562;4.898;2022-07-29T03:22:44;22.80;58.90
7666;DHT22;3875;46.562;4.898;2022-07-29T03:25:13;22.80;58.90
7666;DHT22;3875;46.562;4.898;2022-07-29T03:27:39;22.80;58.80
7666;DHT22;3875;46.562;4.898;2022-07-29T03:30:06;22.70;58.90
7666;DHT22;3875;46.562;4.898;2022-07-29T03:32:32;22.70;58.80
7666;DHT22;3875;46.562;4.898;2022-07-29T03:34:58;22.70;58.80
7666;DHT22;3875;46.562;4.898;2022-07-29T03:37:24;22.60;58.80
7666;DHT22;3875;46.562;4.898;2022-07-29T03:39:51;22.70;58.70
7666;DHT22;3875;46.562;4.898;2022-07-29T03:42:19;22.70;58.70
7666;DHT22;3875;46.562;4.898;2022-07-29T03:44:47;22.70;58.70
7666;DHT22;3875;46.562;4.898;2022-07-29T03:47:15;22.80;58.80
7666;DHT22;3875;46.562;4.898;2022-07-29T03:49:44;22.80;58.60
7666;DHT22;3875;46.562;4.898;2022-07-29T03:52:12;22.80;58.60
7666;DHT22;3875;46.562;4.898;2022-07-29T03:54:38;22.70;58.60
7666;DHT22;3875;46.562;4.898;2022-07-29T03:57:06;22.60;58.80
7666;DHT22;3875;46.562;4.898;2022-07-29T03:59:33;22.60;58.90
7666;DHT22;3875;46.562;4.898;2022-07-29T04:02:01;22.50;59.00
7666;DHT22;3875;46.562;4.898;2022-07-29T04:04:27;22.50;59.00
7666;DHT22;3875;46.562;4.898;2022-07-29T04:06:53;22.60;59.10
7666;DHT22;3875;46.562;4.898;2022-07-29T04:09:19;22.50;59.10
7666;DHT22;3875;46.562;4.898;2022-07-29T04:11:45;22.60;59.00
7666;DHT22;3875;46.562;4.898;2022-07-29T04:14:11;22.60;58.90
7666;DHT22;3875;46.562;4.898;2022-07-29T04:16:36;22.70;58.80
7666;DHT22;3875;46.562;4.898;2022-07-29T04:19:02;22.70;58.80
7666;DHT22;3875;46.562;4.898;2022-07-29T04:21:28;22.70;58.80
7666;DHT22;3875;46.562;4.898;2022-07-29T04:23:53;22.70;59.00
7666;DHT22;3875;46.562;4.898;2022-07-29T04:26:20;22.70;59.10
7666;DHT22;3875;46.562;4.898;2022-07-29T04:28:46;22.70;59.20
7666;DHT22;3875;46.562;4.898;2022-07-29T04:31:12;22.80;59.10
7666;DHT22;3875;46.562;4.898;2022-07-29T04:33:39;22.80;59.20
7666;DHT22;3875;46.562;4.898;2022-07-29T04:36:05;22.80;59.30
7666;DHT22;3875;46.562;4.898;2022-07-29T04:38:31;22.80;59.00
7666;DHT22;3875;46.562;4.898;2022-07-29T04:40:56;22.80;59.00
7666;DHT22;3875;46.562;4.898;2022-07-29T04:43:22;22.80;58.90
7666;DHT22;3875;46.562;4.898;2022-07-29T04:45:48;22.80;59.10
7666;DHT22;3875;46.562;4.898;2022-07-29T04:48:13;22.70;59.10
7666;DHT22;3875;46.562;4.898;2022-07-29T04:50:40;22.70;59.00
7666;DHT22;3875;46.562;4.898;2022-07-29T04:53:06;22.70;59.10
7666;DHT22;3875;46.562;4.898;2022-07-29T04:55:32;22.70;59.10
7666;DHT22;3875;46.562;4.898;2022-07-29T04:57:58;22.80;59.20
7666;DHT22;3875;46.562;4.898;2022-07-29T05:00:24;22.80;59.10
7666;DHT22;3875;46.562;4.898;2022-07-29T05:02:49;22.80;59.10
7666;DHT22;3875;46.562;4.898;2022-07-29T05:05:15;22.90;59.30
7666;DHT22;3875;46.562;4.898;2022-07-29T05:07:41;22.90;59.30
7666;DHT22;3875;46.562;4.898;2022-07-29T05:10:08;22.90;59.10
7666;DHT22;3875;46.562;4.898;2022-07-29T05:12:33;22.90;59.10
7666;DHT22;3875;46.562;4.898;2022-07-29T05:14:59;22.90;58.90
7666;DHT22;3875;46.562;4.898;2022-07-29T05:17:25;22.90;58.90
7666;DHT22;3875;46.562;4.898;2022-07-29T05:19:51;22.90;58.90
7666;DHT22;3875;46.562;4.898;2022-07-29T05:22:18;23.00;59.20
7666;DHT22;3875;46.562;4.898;2022-07-29T05:24:44;23.00;59.10
7666;DHT22;3875;46.562;4.898;2022-07-29T05:27:10;23.00;59.00
7666;DHT22;3875;46.562;4.898;2022-07-29T05:29:36;22.90;59.20
7666;DHT22;3875;46.562;4.898;2022-07-29T05:32:02;22.90;59.40
7666;DHT22;3875;46.562;4.898;2022-07-29T05:34:28;22.90;59.40
7666;DHT22;3875;46.562;4.898;2022-07-29T05:36:54;22.80;59.60
7666;DHT22;3875;46.562;4.898;2022-07-29T05:39:19;22.80;59.80
7666;DHT22;3875;46.562;4.898;2022-07-29T05:41:45;22.70;59.80
7666;DHT22;3875;46.562;4.898;2022-07-29T05:44:11;22.70;59.80
7666;DHT22;3875;46.562;4.898;2022-07-29T05:46:38;22.80;60.00
7666;DHT22;3875;46.562;4.898;2022-07-29T05:49:04;22.80;59.60
7666;DHT22;3875;46.562;4.898;2022-07-29T05:51:32;22.80;59.70
7666;DHT22;3875;46.562;4.898;2022-07-29T05:53:58;22.70;59.80
7666;DHT22;3875;46.562;4.898;2022-07-29T05:56:24;22.70;59.80
7666;DHT22;3875;46.562;4.898;2022-07-29T05:58:50;22.70;60.20
7666;DHT22;3875;46.562;4.898;2022-07-29T06:01:16;22.80;60.10
7666;DHT22;3875;46.562;4.898;2022-07-29T06:03:41;22.90;60.20
7666;DHT22;3875;46.562;4.898;2022-07-29T06:06:07;22.80;59.80
7666;DHT22;3875;46.562;4.898;2022-07-29T06:08:33;22.90;60.00
7666;DHT22;3875;46.562;4.898;2022-07-29T06:11:00;22.90;59.80
7666;DHT22;3875;46.562;4.898;2022-07-29T06:13:26;23.00;59.80
7666;DHT22;3875;46.562;4.898;2022-07-29T06:15:51;23.10;59.50
7666;DHT22;3875;46.562;4.898;2022-07-29T06:18:17;23.20;59.40
7666;DHT22;3875;46.562;4.898;2022-07-29T06:20:43;23.30;59.20
7666;DHT22;3875;46.562;4.898;2022-07-29T06:23:09;23.40;59.40
7666;DHT22;3875;46.562;4.898;2022-07-29T06:25:35;23.40;59.50
7666;DHT22;3875;46.562;4.898;2022-07-29T06:28:02;23.50;59.40
7666;DHT22;3875;46.562;4.898;2022-07-29T06:30:29;23.60;59.30
7666;DHT22;3875;46.562;4.898;2022-07-29T06:32:55;23.60;59.00
7666;DHT22;3875;46.562;4.898;2022-07-29T06:35:21;23.50;59.10
7666;DHT22;3875;46.562;4.898;2022-07-29T06:37:46;23.40;59.00
7666;DHT22;3875;46.562;4.898;2022-07-29T06:40:12;23.50;59.40
7666;DHT22;3875;46.562;4.898;2022-07-29T06:42:56;23.60;59.30
7666;DHT22;3875;46.562;4.898;2022-07-29T06:45:22;23.60;59.10
7666;DHT22;3875;46.562;4.898;2022-07-29T06:47:48;23.60;59.60
7666;DHT22;3875;46.562;4.898;2022-07-29T06:50:15;23.70;59.60
7666;DHT22;3875;46.562;4.898;2022-07-29T06:52:41;23.80;59.50
7666;DHT22;3875;46.562;4.898;2022-07-29T06:55:07;23.80;59.50
7666;DHT22;3875;46.562;4.898;2022-07-29T06:57:33;23.90;59.30
7666;DHT22;3875;46.562;4.898;2022-07-29T06:59:59;23.90;60.10
7666;DHT22;3875;46.562;4.898;2022-07-29T07:02:25;24.00;59.30
7666;DHT22;3875;46.562;4.898;2022-07-29T07:04:51;23.90;59.60
7666;DHT22;3875;46.562;4.898;2022-07-29T07:07:16;24.00;59.30
7666;DHT22;3875;46.562;4.898;2022-07-29T07:09:42;23.90;59.20
7666;DHT22;3875;46.562;4.898;2022-07-29T07:12:08;23.80;58.90
7666;DHT22;3875;46.562;4.898;2022-07-29T07:14:34;23.70;59.40
7666;DHT22;3875;46.562;4.898;2022-07-29T07:16:59;23.80;59.20
7666;DHT22;3875;46.562;4.898;2022-07-29T07:19:29;23.90;59.30
7666;DHT22;3875;46.562;4.898;2022-07-29T07:21:55;23.90;59.00
7666;DHT22;3875;46.562;4.898;2022-07-29T07:24:20;23.90;59.30
7666;DHT22;3875;46.562;4.898;2022-07-29T07:26:46;23.90;59.60
7666;DHT22;3875;46.562;4.898;2022-07-29T07:29:12;23.90;59.60
7666;DHT22;3875;46.562;4.898;2022-07-29T07:31:39;23.80;59.70
7666;DHT22;3875;46.562;4.898;2022-07-29T07:34:05;23.50;60.30
7666;DHT22;3875;46.562;4.898;2022-07-29T07:36:31;23.40;60.60
7666;DHT22;3875;46.562;4.898;2022-07-29T07:38:56;23.40;60.90
7666;DHT22;3875;46.562;4.898;2022-07-29T07:41:22;23.30;61.20
7666;DHT22;3875;46.562;4.898;2022-07-29T07:43:48;23.30;61.30
7666;DHT22;3875;46.562;4.898;2022-07-29T07:46:14;23.30;61.20
7666;DHT22;3875;46.562;4.898;2022-07-29T07:48:40;23.40;61.20
7666;DHT22;3875;46.562;4.898;2022-07-29T07:51:06;23.50;61.10
7666;DHT22;3875;46.562;4.898;2022-07-29T07:53:32;23.60;61.10
7666;DHT22;3875;46.562;4.898;2022-07-29T07:55:59;23.70;61.00
7666;DHT22;3875;46.562;4.898;2022-07-29T07:58:24;23.80;61.40
7666;DHT22;3875;46.562;4.898;2022-07-29T08:00:50;23.70;61.30
7666;DHT22;3875;46.562;4.898;2022-07-29T08:03:16;23.70;61.60
7666;DHT22;3875;46.562;4.898;2022-07-29T08:05:41;23.60;61.60
7666;DHT22;3875;46.562;4.898;2022-07-29T08:08:07;23.50;61.90
7666;DHT22;3875;46.562;4.898;2022-07-29T08:10:33;23.40;62.10
7666;DHT22;3875;46.562;4.898;2022-07-29T08:13:19;23.50;62.60
7666;DHT22;3875;46.562;4.898;2022-07-29T08:15:45;23.40;62.80
7666;DHT22;3875;46.562;4.898;2022-07-29T08:18:12;23.40;62.80
7666;DHT22;3875;46.562;4.898;2022-07-29T08:20:39;23.40;63.20
7666;DHT22;3875;46.562;4.898;2022-07-29T08:23:06;23.40;63.50
7666;DHT22;3875;46.562;4.898;2022-07-29T08:25:35;23.40;64.10
7666;DHT22;3875;46.562;4.898;2022-07-29T08:28:01;23.40;64.30
7666;DHT22;3875;46.562;4.898;2022-07-29T08:30:27;23.50;64.70
7666;DHT22;3875;46.562;4.898;2022-07-29T08:32:53;23.60;64.20
7666;DHT22;3875;46.562;4.898;2022-07-29T08:35:22;23.70;63.80
7666;DHT22;3875;46.562;4.898;2022-07-29T08:37:49;24.00;63.50
7666;DHT22;3875;46.562;4.898;2022-07-29T08:40:15;24.30;62.60
7666;DHT22;3875;46.562;4.898;2022-07-29T08:42:41;24.50;61.90
7666;DHT22;3875;46.562;4.898;2022-07-29T08:45:07;24.70;61.40
7666;DHT22;3875;46.562;4.898;2022-07-29T08:47:33;24.90;60.50
7666;DHT22;3875;46.562;4.898;2022-07-29T08:50:02;25.10;60.20
7666;DHT22;3875;46.562;4.898;2022-07-29T08:52:29;25.30;60.50
7666;DHT22;3875;46.562;4.898;2022-07-29T08:54:57;25.60;60.10
7666;DHT22;3875;46.562;4.898;2022-07-29T08:57:24;25.80;58.90
7666;DHT22;3875;46.562;4.898;2022-07-29T08:59:52;26.10;59.00
7666;DHT22;3875;46.562;4.898;2022-07-29T09:02:20;26.30;58.40
7666;DHT22;3875;46.562;4.898;2022-07-29T09:04:47;26.30;57.70
7666;DHT22;3875;46.562;4.898;2022-07-29T09:07:18;26.20;57.60
7666;DHT22;3875;46.562;4.898;2022-07-29T09:09:44;26.00;57.70
7666;DHT22;3875;46.562;4.898;2022-07-29T09:12:11;26.00;57.90
7666;DHT22;3875;46.562;4.898;2022-07-29T09:14:38;25.80;57.90
7666;DHT22;3875;46.562;4.898;2022-07-29T09:17:03;25.70;58.20
7666;DHT22;3875;46.562;4.898;2022-07-29T09:19:30;25.50;58.70
7666;DHT22;3875;46.562;4.898;2022-07-29T09:21:58;25.50;58.80
7666;DHT22;3875;46.562;4.898;2022-07-29T09:24:46;25.70;59.20
7666;DHT22;3875;46.562;4.898;2022-07-29T09:27:23;25.70;58.80
7666;DHT22;3875;46.562;4.898;2022-07-29T09:29:59;25.70;58.30
7666;DHT22;3875;46.562;4.898;2022-07-29T09:32:25;25.60;58.00
7666;DHT22;3875;46.562;4.898;2022-07-29T09:35:14;25.60;58.60
7666;DHT22;3875;46.562;4.898;2022-07-29T09:37:41;25.80;58.80
7666;DHT22;3875;46.562;4.898;2022-07-29T09:40:21;25.90;58.30
7666;DHT22;3875;46.562;4.898;2022-07-29T09:42:47;26.00;58.40
7666;DHT22;3875;46.562;4.898;2022-07-29T09:45:26;25.90;58.20
7666;DHT22;3875;46.562;4.898;2022-07-29T09:47:52;26.00;58.30
7666;DHT22;3875;46.562;4.898;2022-07-29T09:50:18;26.10;58.10
7666;DHT22;3875;46.562;4.898;2022-07-29T09:52:52;26.20;57.90
7666;DHT22;3875;46.562;4.898;2022-07-29T09:55:20;26.30;58.30
7666;DHT22;3875;46.562;4.898;2022-07-29T09:57:46;26.50;57.60
7666;DHT22;3875;46.562;4.898;2022-07-29T10:00:14;26.60;57.70
7666;DHT22;3875;46.562;4.898;2022-07-29T10:02:43;26.80;57.20
7666;DHT22;3875;46.562;4.898;2022-07-29T10:05:23;26.90;56.50
7666;DHT22;3875;46.562;4.898;2022-07-29T10:07:56;26.90;56.40
7666;DHT22;3875;46.562;4.898;2022-07-29T10:10:30;26.90;56.40
7666;DHT22;3875;46.562;4.898;2022-07-29T10:13:01;27.00;56.90
7666;DHT22;3875;46.562;4.898;2022-07-29T10:15:30;27.20;56.70
7666;DHT22;3875;46.562;4.898;2022-07-29T10:17:58;27.20;55.20
7666;DHT22;3875;46.562;4.898;2022-07-29T10:20:25;27.10;55.70
7666;DHT22;3875;46.562;4.898;2022-07-29T10:22:51;27.20;55.80
7666;DHT22;3875;46.562;4.898;2022-07-29T10:25:19;27.30;55.20
7666;DHT22;3875;46.562;4.898;2022-07-29T10:27:46;27.30;55.70
7666;DHT22;3875;46.562;4.898;2022-07-29T10:30:14;27.50;56.30
7666;DHT22;3875;46.562;4.898;2022-07-29T10:44:04;27.60;55.90
7666;DHT22;3875;46.562;4.898;2022-07-29T10:46:38;27.40;55.90
7666;DHT22;3875;46.562;4.898;2022-07-29T10:49:19;27.30;55.80
7666;DHT22;3875;46.562;4.898;2022-07-29T10:52:08;27.40;55.60
7666;DHT22;3875;46.562;4.898;2022-07-29T10:54:41;27.30;55.60
7666;DHT22;3875;46.562;4.898;2022-07-29T10:57:28;27.30;55.60
7666;DHT22;3875;46.562;4.898;2022-07-29T11:05:07;27.70;55.10
7666;DHT22;3875;46.562;4.898;2022-07-29T11:07:34;27.80;55.40
7666;DHT22;3875;46.562;4.898;2022-07-29T11:15:13;27.90;55.50
7666;DHT22;3875;46.562;4.898;2022-07-29T11:20:46;28.10;55.70
7666;DHT22;3875;46.562;4.898;2022-07-29T11:23:24;28.00;55.60
7666;DHT22;3875;46.562;4.898;2022-07-29T11:28:59;28.00;55.60
7666;DHT22;3875;46.562;4.898;2022-07-29T11:31:33;28.10;55.80
7666;DHT22;3875;46.562;4.898;2022-07-29T11:34:29;28.20;55.10
7666;DHT22;3875;46.562;4.898;2022-07-29T11:47:34;29.30;50.20
7666;DHT22;3875;46.562;4.898;2022-07-29T11:50:02;29.40;50.00
7666;DHT22;3875;46.562;4.898;2022-07-29T11:52:44;29.70;52.10
7666;DHT22;3875;46.562;4.898;2022-07-29T11:55:18;30.20;52.00
7666;DHT22;3875;46.562;4.898;2022-07-29T11:57:48;30.60;50.60
7666;DHT22;3875;46.562;4.898;2022-07-29T12:00:32;30.60;50.70
7666;DHT22;3875;46.562;4.898;2022-07-29T12:03:00;30.50;50.20
7666;DHT22;3875;46.562;4.898;2022-07-29T12:05:40;30.40;50.80
7666;DHT22;3875;46.562;4.898;2022-07-29T12:10:37;30.40;50.20
7666;DHT22;3875;46.562;4.898;2022-07-29T12:13:03;30.00;49.20
7666;DHT22;3875;46.562;4.898;2022-07-29T12:15:29;30.00;48.10
7666;DHT22;3875;46.562;4.898;2022-07-29T12:17:55;30.00;49.30
7666;DHT22;3875;46.562;4.898;2022-07-29T12:20:27;30.00;49.80
7666;DHT22;3875;46.562;4.898;2022-07-29T12:22:54;30.10;50.60
7666;DHT22;3875;46.562;4.898;2022-07-29T12:25:21;29.90;50.20
7666;DHT22;3875;46.562;4.898;2022-07-29T12:27:57;29.90;50.60
7666;DHT22;3875;46.562;4.898;2022-07-29T12:30:35;29.60;49.10
7666;DHT22;3875;46.562;4.898;2022-07-29T12:33:01;29.50;48.90
7666;DHT22;3875;46.562;4.898;2022-07-29T12:35:27;29.60;48.80
7666;DHT22;3875;46.562;4.898;2022-07-29T12:37:53;29.80;48.10
7666;DHT22;3875;46.562;4.898;2022-07-29T12:40:20;29.90;48.40
7666;DHT22;3875;46.562;4.898;2022-07-29T12:45:32;29.80;48.60
7666;DHT22;3875;46.562;4.898;2022-07-29T12:47:58;29.90;49.20
7666;DHT22;3875;46.562;4.898;2022-07-29T12:50:24;29.90;49.60
7666;DHT22;3875;46.562;4.898;2022-07-29T12:52:50;30.00;49.80
7666;DHT22;3875;46.562;4.898;2022-07-29T12:55:37;30.20;50.00
7666;DHT22;3875;46.562;4.898;2022-07-29T12:58:02;30.10;49.70
7666;DHT22;3875;46.562;4.898;2022-07-29T13:00:27;30.30;48.40
7666;DHT22;3875;46.562;4.898;2022-07-29T13:02:56;30.20;48.60
7666;DHT22;3875;46.562;4.898;2022-07-29T13:05:22;30.30;48.60
7666;DHT22;3875;46.562;4.898;2022-07-29T13:07:47;30.30;47.90
7666;DHT22;3875;46.562;4.898;2022-07-29T13:10:15;30.30;47.00
7666;DHT22;3875;46.562;4.898;2022-07-29T13:13:04;30.20;47.10
7666;DHT22;3875;46.562;4.898;2022-07-29T13:15:31;30.10;47.40
7666;DHT22;3875;46.562;4.898;2022-07-29T13:17:57;30.00;47.20
7666;DHT22;3875;46.562;4.898;2022-07-29T13:20:28;29.90;47.70
7666;DHT22;3875;46.562;4.898;2022-07-29T13:22:58;30.10;47.80
7666;DHT22;3875;46.562;4.898;2022-07-29T13:25:27;30.20;47.90
7666;DHT22;3875;46.562;4.898;2022-07-29T13:27:54;30.00;47.90
7666;DHT22;3875;46.562;4.898;2022-07-29T13:30:20;29.90;48.10
7666;DHT22;3875;46.562;4.898;2022-07-29T13:32:47;29.90;48.30
7666;DHT22;3875;46.562;4.898;2022-07-29T13:35:13;30.00;47.60
7666;DHT22;3875;46.562;4.898;2022-07-29T13:37:39;30.00;47.40
7666;DHT22;3875;46.562;4.898;2022-07-29T13:40:07;30.10;48.10
7666;DHT22;3875;46.562;4.898;2022-07-29T13:42:32;30.30;48.30
7666;DHT22;3875;46.562;4.898;2022-07-29T13:44:59;30.30;47.70
7666;DHT22;3875;46.562;4.898;2022-07-29T13:47:25;30.30;47.90
7666;DHT22;3875;46.562;4.898;2022-07-29T13:49:51;30.10;48.00
7666;DHT22;3875;46.562;4.898;2022-07-29T13:52:18;29.90;47.50
7666;DHT22;3875;46.562;4.898;2022-07-29T13:54:44;30.00;48.60
7666;DHT22;3875;46.562;4.898;2022-07-29T13:57:11;30.30;48.40
7666;DHT22;3875;46.562;4.898;2022-07-29T13:59:37;30.50;48.10
7666;DHT22;3875;46.562;4.898;2022-07-29T14:02:03;30.60;48.00
7666;DHT22;3875;46.562;4.898;2022-07-29T14:04:28;30.70;47.90
7666;DHT22;3875;46.562;4.898;2022-07-29T14:06:54;30.70;47.30
7666;DHT22;3875;46.562;4.898;2022-07-29T14:09:20;30.80;47.10
7666;DHT22;3875;46.562;4.898;2022-07-29T14:11:46;30.80;47.30
7666;DHT22;3875;46.562;4.898;2022-07-29T14:14:14;30.90;46.70
7666;DHT22;3875;46.562;4.898;2022-07-29T14:16:40;30.80;46.50
7666;DHT22;3875;46.562;4.898;2022-07-29T14:19:06;30.80;47.10
7666;DHT22;3875;46.562;4.898;2022-07-29T14:21:32;30.90;47.10
7666;DHT22;3875;46.562;4.898;2022-07-29T14:23:58;31.00;46.50
7666;DHT22;3875;46.562;4.898;2022-07-29T14:26:24;30.70;46.90
7666;DHT22;3875;46.562;4.898;2022-07-29T14:28:49;30.60;47.10
7666;DHT22;3875;46.562;4.898;2022-07-29T14:31:15;30.70;47.30
7666;DHT22;3875;46.562;4.898;2022-07-29T14:33:41;30.70;46.80
7666;DHT22;3875;46.562;4.898;2022-07-29T14:36:07;30.70;47.20
7666;DHT22;3875;46.562;4.898;2022-07-29T14:38:35;30.80;47.70
7666;DHT22;3875;46.562;4.898;2022-07-29T14:41:01;30.80;47.60
7666;DHT22;3875;46.562;4.898;2022-07-29T14:43:27;30.80;47.90
7666;DHT22;3875;46.562;4.898;2022-07-29T14:45:52;30.80;47.70
7666;DHT22;3875;46.562;4.898;2022-07-29T14:48:18;30.90;47.80
7666;DHT22;3875;46.562;4.898;2022-07-29T14:50:44;31.00;48.10
7666;DHT22;3875;46.562;4.898;2022-07-29T14:53:09;30.90;48.00
7666;DHT22;3875;46.562;4.898;2022-07-29T14:55:37;30.70;48.20
7666;DHT22;3875;46.562;4.898;2022-07-29T14:58:03;30.80;48.20
7666;DHT22;3875;46.562;4.898;2022-07-29T15:00:29;31.20;47.30
7666;DHT22;3875;46.562;4.898;2022-07-29T15:02:58;31.60;46.90
7666;DHT22;3875;46.562;4.898;2022-07-29T15:05:23;31.80;46.60
7666;DHT22;3875;46.562;4.898;2022-07-29T15:07:49;32.00;45.90
7666;DHT22;3875;46.562;4.898;2022-07-29T15:10:15;32.00;46.00
7666;DHT22;3875;46.562;4.898;2022-07-29T15:12:40;31.80;45.90
7666;DHT22;3875;46.562;4.898;2022-07-29T15:15:06;31.70;46.10
7666;DHT22;3875;46.562;4.898;2022-07-29T15:17:32;31.50;46.10
7666;DHT22;3875;46.562;4.898;2022-07-29T15:19:58;31.40;46.40
7666;DHT22;3875;46.562;4.898;2022-07-29T15:22:24;31.30;47.00
7666;DHT22;3875;46.562;4.898;2022-07-29T15:24:50;31.20;47.30
7666;DHT22;3875;46.562;4.898;2022-07-29T15:27:16;31.20;46.90
7666;DHT22;3875;46.562;4.898;2022-07-29T15:29:42;31.10;47.30
7666;DHT22;3875;46.562;4.898;2022-07-29T15:32:09;31.00;47.60
7666;DHT22;3875;46.562;4.898;2022-07-29T15:34:35;30.90;47.60
7666;DHT22;3875;46.562;4.898;2022-07-29T15:37:01;30.90;47.80
7666;DHT22;3875;46.562;4.898;2022-07-29T15:39:26;30.80;48.10
7666;DHT22;3875;46.562;4.898;2022-07-29T15:41:52;30.70;48.00
7666;DHT22;3875;46.562;4.898;2022-07-29T15:44:18;30.60;47.70
7666;DHT22;3875;46.562;4.898;2022-07-29T15:46:44;30.70;48.20
7666;DHT22;3875;46.562;4.898;2022-07-29T15:49:38;30.70;48.00
7666;DHT22;3875;46.562;4.898;2022-07-29T15:52:06;30.80;47.80
7666;DHT22;3875;46.562;4.898;2022-07-29T15:54:33;30.70;47.90
7666;DHT22;3875;46.562;4.898;2022-07-29T15:56:59;30.70;47.80
7666;DHT22;3875;46.562;4.898;2022-07-29T15:59:25;30.70;47.90
7666;DHT22;3875;46.562;4.898;2022-07-29T16:01:51;30.70;47.60
7666;DHT22;3875;46.562;4.898;2022-07-29T16:04:17;30.70;48.00
7666;DHT22;3875;46.562;4.898;2022-07-29T16:06:44;30.70;48.00
7666;DHT22;3875;46.562;4.898;2022-07-29T16:09:10;30.70;48.00
7666;DHT22;3875;46.562;4.898;2022-07-29T16:11:36;30.80;48.10
7666;DHT22;3875;46.562;4.898;2022-07-29T16:14:02;30.80;48.00
7666;DHT22;3875;46.562;4.898;2022-07-29T16:16:28;30.80;47.80
7666;DHT22;3875;46.562;4.898;2022-07-29T16:18:53;30.80;48.40
7666;DHT22;3875;46.562;4.898;2022-07-29T16:21:19;30.90;48.00
7666;DHT22;3875;46.562;4.898;2022-07-29T16:23:47;30.90;47.90
7666;DHT22;3875;46.562;4.898;2022-07-29T16:26:13;31.30;47.50
7666;DHT22;3875;46.562;4.898;2022-07-29T16:28:38;31.70;47.00
7666;DHT22;3875;46.562;4.898;2022-07-29T16:31:04;32.00;46.40
7666;DHT22;3875;46.562;4.898;2022-07-29T16:33:30;32.10;46.10
7666;DHT22;3875;46.562;4.898;2022-07-29T16:35:55;32.60;45.90
7666;DHT22;3875;46.562;4.898;2022-07-29T16:38:21;33.60;44.90
7666;DHT22;3875;46.562;4.898;2022-07-29T16:40:47;34.20;44.00
7666;DHT22;3875;46.562;4.898;2022-07-29T16:43:12;34.60;43.20
7666;DHT22;3875;46.562;4.898;2022-07-29T16:45:39;35.10;42.80
7666;DHT22;3875;46.562;4.898;2022-07-29T16:48:05;35.80;42.40
7666;DHT22;3875;46.562;4.898;2022-07-29T16:50:31;36.60;41.20
7666;DHT22;3875;46.562;4.898;2022-07-29T16:52:57;36.40;40.90
7666;DHT22;3875;46.562;4.898;2022-07-29T16:55:23;35.50;41.70
7666;DHT22;3875;46.562;4.898;2022-07-29T16:57:50;35.30;42.30